Date,TemperatureHighF,TemperatureAvgF,TemperatureLowF,DewpointHighF,DewpointAvgF,DewpointLowF,HumidityHigh,HumidityAvg,HumidityLow,PressureMaxIn,PressureMinIn,WindSpeedMaxMPH,WindSpeedAvgMPH,GustSpeedMaxMPH,PrecipitationSumIn
2013-11-1,73.9,65.2,56.7,64.6,60.4,55.2,97,85,61,29.79,29.60,12,1,13,0.09
2013-11-2,68.2,56.5,46.4,57.4,48.0,40.1,98,76,47,29.90,29.66,11,0,11,0.00
2013-11-3,59.0,47.3,39.6,42.6,35.3,23.9,90,66,35,30.48,29.90,10,1,10,0.00
2013-11-4,48.0,38.8,30.4,30.0,25.9,22.3,83,61,40,30.66,30.48,8,0,8,0.00
2013-11-5,57.6,47.2,34.9,47.8,40.3,30.0,87,78,64,30.64,30.48,5,0,5,0.00
2013-11-6,69.8,57.2,48.0,54.9,50.6,45.5,94,80,56,30.48,30.08,9,0,9,0.00
2013-11-7,60.6,53.0,42.4,56.5,46.2,25.5,96,79,47,30.10,29.89,14,1,14,0.01
2013-11-8,51.4,40.9,32.9,33.3,28.6,24.4,87,63,38,30.34,30.09,20,1,20,0.00
2013-11-9,56.8,42.5,29.5,34.2,30.4,27.0,93,66,38,30.38,30.06,8,-3,10,0.00
2013-11-10,63.5,47.1,35.2,41.5,32.4,28.2,88,60,32,30.25,29.98,17,1,17,0.00
2013-11-11,59.2,46.6,33.4,36.5,31.9,28.6,87,59,37,30.33,30.02,8,1,10,0.00
2013-11-12,50.4,40.2,29.7,39.2,25.9,16.2,71,57,42,30.42,29.99,11,1,14,0.00
2013-11-13,42.4,33.8,28.2,24.3,21.6,19.0,74,61,45,30.50,30.41,10,1,11,0.00
2013-11-14,61.0,39.3,25.3,28.2,24.0,19.0,86,59,22,30.41,30.24,6,0,6,0.00
2013-11-15,62.8,44.3,29.8,43.5,31.2,26.2,91,64,26,30.30,30.21,6,0,7,0.05
2013-11-16,51.8,48.5,42.1,50.0,47.1,40.8,97,95,91,30.34,30.25,4,0,6,0.20
2013-11-17,62.1,57.1,50.9,58.3,54.9,50.0,98,93,84,30.25,29.76,9,1,10,0.02
2013-11-18,68.9,58.1,48.7,60.6,41.0,25.7,96,59,23,29.95,29.71,15,2,15,0.02
2013-11-19,48.9,43.3,35.4,31.1,28.2,25.3,72,55,45,30.40,29.95,12,2,13,0.00
2013-11-20,50.4,37.5,30.4,28.9,26.8,24.3,86,67,40,30.59,30.39,8,0,8,0.00
2013-11-21,48.6,41.0,30.4,41.2,34.7,27.9,93,79,65,30.59,30.41,3,0,4,0.00
2013-11-22,61.5,53.1,45.3,54.7,47.9,40.3,93,83,73,30.41,30.02,7,0,11,0.00
2013-11-23,55.6,43.6,31.3,48.9,29.0,11.8,79,57,43,30.23,30.05,16,3,16,0.00
2013-11-24,32.4,27.1,22.8,11.7,8.9,5.2,60,46,36,30.55,30.22,23,3,23,0.00
2013-11-25,39.6,28.9,19.6,15.6,11.8,8.6,73,50,29,30.60,30.36,10,1,10,0.00
2013-11-26,43.2,36.0,33.4,42.3,29.1,13.1,97,79,40,30.36,29.63,11,1,11,0.69
2013-11-27,39.2,36.2,29.1,37.6,32.5,16.5,97,87,59,30.06,29.54,21,0,21,0.12
2013-11-28,39.0,31.0,26.4,24.8,18.3,14.5,81,60,41,30.50,30.06,17,2,17,0.01
2013-11-29,43.0,32.6,23.9,25.2,22.4,20.1,92,68,43,30.74,30.48,12,1,12,0.00
2013-11-30,38.7,31.4,24.3,26.8,22.0,18.7,81,69,49,30.74,30.40,5,0,5,0.00